Time;durP1;ratioP1;P1;durP2;ratioP2;P2;SDS_P1;SDS_P2;PMS_P1;PMS_P2;Temp;Humidity;BMP_temperature;BMP_pressure;BME280_temperature;BME280_humidity;BME280_pressure;Samples;Min_cycle;Max_cycle;Signal;HPM_P1;HPM_P2
2022/08/29 00:01:00;;;;;;;14.63;8.53;;;15.70;99.90;;;;;;5049603;28;20461;-64
2022/08/29 00:03:26;;;;;;;10.90;8.83;;;15.70;99.90;;;;;;5053118;28;20647;-63
2022/08/29 00:05:52;;;;;;;13.60;9.07;;;15.70;99.90;;;;;;5047144;28;20475;-64
2022/08/29 00:08:18;;;;;;;11.10;8.30;;;15.60;99.90;;;;;;5047416;28;20970;-64
2022/08/29 00:10:44;;;;;;;13.10;9.23;;;15.60;99.90;;;;;;5054208;28;20594;-64
2022/08/29 00:13:12;;;;;;;11.63;8.63;;;15.60;99.90;;;;;;5056251;28;20438;-65
2022/08/29 00:15:38;;;;;;;11.83;8.57;;;15.60;99.90;;;;;;5044890;28;20458;-64
2022/08/29 00:18:03;;;;;;;11.07;8.17;;;15.60;99.90;;;;;;5066301;28;20483;-64
2022/08/29 00:20:32;;;;;;;13.33;8.27;;;15.50;99.90;;;;;;5044334;28;20465;-64
2022/08/29 00:22:58;;;;;;;11.57;7.97;;;15.50;99.90;;;;;;5045807;28;20213;-64
2022/08/29 00:25:24;;;;;;;10.90;8.30;;;15.50;99.90;;;;;;5044517;28;20429;-64
2022/08/29 00:27:50;;;;;;;13.60;9.07;;;15.40;99.90;;;;;;5032488;28;20539;-64
2022/08/29 00:30:18;;;;;;;12.80;8.20;;;15.40;99.90;;;;;;5057249;28;20954;-64
2022/08/29 00:32:44;;;;;;;13.67;8.70;;;15.40;99.90;;;;;;5057101;28;20645;-64
2022/08/29 00:35:14;;;;;;;11.00;8.53;;;15.40;99.90;;;;;;5049288;28;20511;-64
2022/08/29 00:37:41;;;;;;;13.47;9.20;;;15.40;99.90;;;;;;5043333;28;20191;-63
2022/08/29 00:40:10;;;;;;;10.97;8.00;;;15.30;99.90;;;;;;5060227;28;20867;-63
2022/08/29 00:42:36;;;;;;;12.80;8.63;;;15.30;99.90;;;;;;5047660;28;21039;-63
2022/08/29 00:45:04;;;;;;;16.00;8.60;;;15.30;99.90;;;;;;5040023;28;20449;-63
2022/08/29 00:47:32;;;;;;;9.60;7.77;;;15.30;99.90;;;;;;5057757;28;20806;-63
2022/08/29 00:50:01;;;;;;;10.20;8.67;;;15.20;99.90;;;;;;5048420;28;20436;-63
2022/08/29 00:52:38;;;;;;;14.13;9.03;;;15.20;99.90;;;;;;5044947;28;20429;-63
2022/08/29 00:55:10;;;;;;;10.37;7.83;;;15.20;99.90;;;;;;5056915;28;20429;-63
2022/08/29 00:57:42;;;;;;;13.30;9.60;;;15.10;99.90;;;;;;5063663;28;20544;-64
2022/08/29 01:00:10;;;;;;;10.87;9.30;;;15.10;99.90;;;;;;5054691;28;20469;-63
2022/08/29 01:02:36;;;;;;;13.00;8.70;;;15.10;99.90;;;;;;5064154;28;20497;-63
2022/08/29 01:05:02;;;;;;;17.23;9.30;;;15.10;99.90;;;;;;5060907;28;20880;-63
2022/08/29 01:07:28;;;;;;;9.83;8.70;;;15.10;99.90;;;;;;5067237;28;20813;-63
2022/08/29 01:09:54;;;;;;;13.07;8.30;;;15.10;99.90;;;;;;5061706;28;20425;-64
2022/08/29 01:12:22;;;;;;;11.47;9.10;;;15.00;99.90;;;;;;5057155;28;20690;-64
2022/08/29 01:15:00;;;;;;;15.03;10.07;;;15.00;99.90;;;;;;5060013;28;20257;-63
2022/08/29 01:17:31;;;;;;;13.23;9.10;;;15.00;99.90;;;;;;5038317;28;20548;-63
2022/08/29 01:19:59;;;;;;;11.93;8.00;;;15.00;99.90;;;;;;5062514;28;20973;-63
2022/08/29 01:22:54;;;;;;;14.80;8.40;;;15.00;99.90;;;;;;5053479;28;20441;-63
2022/08/29 01:25:23;;;;;;;13.00;9.13;;;14.90;99.90;;;;;;5049225;28;20528;-63
2022/08/29 01:28:08;;;;;;;8.67;7.73;;;14.90;99.90;;;;;;5052579;28;20490;-63
2022/08/29 01:30:34;;;;;;;13.50;8.80;;;14.90;99.90;;;;;;5058560;28;20968;-62
2022/08/29 01:32:59;;;;;;;16.90;10.77;;;14.90;99.90;;;;;;5050580;28;20511;-64
2022/08/29 01:35:26;;;;;;;18.20;10.03;;;14.90;99.90;;;;;;5061862;28;20186;-65
2022/08/29 01:37:52;;;;;;;13.07;9.47;;;14.90;99.90;;;;;;5042755;28;20936;-64
2022/08/29 01:40:19;;;;;;;12.07;8.97;;;14.80;99.90;;;;;;5068069;28;20448;-62
2022/08/29 01:42:45;;;;;;;12.50;8.83;;;14.80;99.90;;;;;;5054728;28;20397;-64
2022/08/29 01:45:11;;;;;;;12.60;9.57;;;14.80;99.90;;;;;;5057001;28;21094;-63
2022/08/29 01:47:38;;;;;;;13.53;9.50;;;14.80;99.90;;;;;;5063595;28;20427;-63
2022/08/29 01:50:11;;;;;;;15.03;9.90;;;14.80;99.90;;;;;;5051188;28;20676;-63
2022/08/29 01:52:37;;;;;;;12.63;9.37;;;14.80;99.90;;;;;;5053970;28;20429;-63
2022/08/29 01:55:03;;;;;;;16.27;9.73;;;14.80;99.90;;;;;;5051650;28;20433;-63
2022/08/29 01:57:29;;;;;;;19.53;8.40;;;14.80;99.90;;;;;;5060893;28;21928;-64
2022/08/29 01:59:55;;;;;;;10.53;8.80;;;14.70;99.90;;;;;;5058768;28;20461;-64
2022/08/29 02:02:26;;;;;;;14.30;8.63;;;14.70;99.90;;;;;;5044033;28;20589;-64
2022/08/29 02:04:52;;;;;;;34.93;8.90;;;14.60;99.90;;;;;;5046384;28;20421;-64
2022/08/29 02:07:20;;;;;;;18.33;8.80;;;14.60;99.90;;;;;;5049678;28;20475;-63
2022/08/29 02:09:46;;;;;;;13.43;8.97;;;14.60;99.90;;;;;;5047147;28;20465;-64
2022/08/29 02:12:13;;;;;;;17.73;8.40;;;14.50;99.90;;;;;;5051586;28;20437;-64
2022/08/29 02:14:39;;;;;;;25.63;9.13;;;14.50;99.90;;;;;;5069477;28;20421;-64
2022/08/29 02:17:07;;;;;;;28.93;8.20;;;14.50;99.90;;;;;;5049709;28;20446;-64
2022/08/29 02:19:33;;;;;;;13.20;8.33;;;14.50;99.90;;;;;;5045747;28;20260;-64
2022/08/29 02:22:01;;;;;;;8.47;7.50;;;14.40;99.90;;;;;;5052527;28;20520;-63
2022/08/29 02:24:27;;;;;;;11.90;8.43;;;14.40;99.90;;;;;;5041594;28;20433;-63
2022/08/29 02:26:54;;;;;;;10.43;7.50;;;14.40;99.90;;;;;;5054251;28;20453;-63
2022/08/29 02:29:19;;;;;;;10.40;7.97;;;14.40;99.90;;;;;;5041129;28;20434;-63
2022/08/29 02:31:45;;;;;;;9.53;7.77;;;14.40;99.90;;;;;;5045402;28;20429;-63
2022/08/29 02:34:11;;;;;;;10.33;7.90;;;14.40;99.90;;;;;;5046807;28;20177;-63
2022/08/29 02:36:37;;;;;;;8.37;7.50;;;14.40;99.90;;;;;;5045733;28;20187;-65
2022/08/29 02:39:04;;;;;;;9.10;7.40;;;14.40;99.90;;;;;;5052190;28;20468;-63
2022/08/29 02:41:30;;;;;;;10.83;7.00;;;14.40;99.90;;;;;;5049985;28;20512;-63
2022/08/29 02:43:57;;;;;;;9.53;7.53;;;14.40;99.90;;;;;;5045354;28;20484;-63
2022/08/29 02:46:23;;;;;;;17.10;8.00;;;14.40;99.90;;;;;;5045143;28;20874;-63
2022/08/29 02:48:48;;;;;;;16.30;7.67;;;14.30;99.90;;;;;;5056865;28;20433;-64
2022/08/29 02:51:29;;;;;;;13.63;7.63;;;14.30;99.90;;;;;;5048596;28;20726;-63
2022/08/29 02:53:54;;;;;;;17.53;8.10;;;14.30;99.90;;;;;;5038980;28;20197;-62
2022/08/29 02:56:20;;;;;;;15.47;7.47;;;14.20;99.90;;;;;;5051149;28;20799;-63
2022/08/29 02:58:49;;;;;;;17.13;8.40;;;14.10;99.90;;;;;;5050270;28;20187;-64
2022/08/29 03:01:16;;;;;;;23.07;7.17;;;14.10;99.90;;;;;;5054160;28;20460;-63
2022/08/29 03:03:41;;;;;;;7.97;7.17;;;14.10;99.90;;;;;;5062041;28;20428;-63
2022/08/29 03:06:08;;;;;;;21.93;7.80;;;14.10;99.90;;;;;;5047411;28;20841;-64
2022/08/29 03:08:33;;;;;;;23.90;7.70;;;14.00;99.90;;;;;;5051137;28;20572;-62
2022/08/29 03:10:59;;;;;;;21.53;8.13;;;14.00;99.90;;;;;;5045075;28;20429;-63
2022/08/29 03:13:25;;;;;;;21.37;8.17;;;14.00;99.90;;;;;;5045951;28;20179;-63
2022/08/29 03:15:51;;;;;;;26.97;9.00;;;13.90;99.90;;;;;;5054572;28;20441;-63
2022/08/29 03:18:17;;;;;;;18.77;8.50;;;13.90;99.90;;;;;;5033446;28;20207;-63
2022/08/29 03:20:43;;;;;;;15.03;8.20;;;13.90;99.90;;;;;;5047794;28;20210;-63
2022/08/29 03:23:10;;;;;;;29.73;8.27;;;13.90;99.90;;;;;;5057076;28;20472;-64
2022/08/29 03:25:35;;;;;;;10.40;7.87;;;14.00;99.90;;;;;;5051443;28;20414;-64
2022/08/29 03:28:01;;;;;;;13.17;8.00;;;14.00;99.90;;;;;;5060027;28;20811;-64
2022/08/29 03:30:28;;;;;;;15.17;9.00;;;14.00;99.90;;;;;;5048191;28;20185;-64
2022/08/29 03:32:55;;;;;;;12.23;9.60;;;14.00;99.90;;;;;;5047207;28;20612;-63
2022/08/29 03:35:21;;;;;;;16.90;9.80;;;14.10;99.90;;;;;;5056252;28;20462;-63
2022/08/29 03:37:47;;;;;;;13.27;8.87;;;14.10;99.90;;;;;;5058817;28;20977;-63
2022/08/29 03:40:14;;;;;;;10.43;8.10;;;14.20;99.90;;;;;;5049400;28;20469;-64
2022/08/29 03:42:41;;;;;;;13.57;7.90;;;14.20;99.90;;;;;;5049927;28;20430;-64
2022/08/29 03:45:11;;;;;;;31.47;9.23;;;14.20;99.90;;;;;;5049167;28;20770;-64
2022/08/29 03:47:36;;;;;;;8.63;7.60;;;14.30;99.90;;;;;;5046954;28;20449;-63
2022/08/29 03:50:03;;;;;;;11.53;7.00;;;14.30;99.90;;;;;;5060660;28;21027;-64
2022/08/29 03:52:29;;;;;;;8.83;6.70;;;14.30;99.90;;;;;;5055663;28;20647;-64
2022/08/29 03:54:56;;;;;;;10.23;7.00;;;14.20;99.90;;;;;;5045273;28;20432;-64
2022/08/29 03:57:22;;;;;;;13.60;7.50;;;14.20;99.90;;;;;;5061683;28;20727;-64
2022/08/29 03:59:48;;;;;;;8.23;7.20;;;14.20;99.90;;;;;;5045806;28;20457;-64
2022/08/29 04:02:14;;;;;;;9.10;6.63;;;14.20;99.90;;;;;;5029599;28;20879;-63
2022/08/29 04:07:24;;;;;;;22.60;7.67;;;14.20;99.90;;;;;;5040216;28;20457;-63
2022/08/29 04:09:49;;;;;;;15.73;7.10;;;14.20;99.90;;;;;;5053815;28;20446;-63
2022/08/29 04:12:15;;;;;;;23.57;7.70;;;14.20;99.90;;;;;;5043639;28;20179;-64
2022/08/29 04:14:41;;;;;;;11.63;7.90;;;14.10;99.90;;;;;;5042924;28;20560;-64
2022/08/29 04:17:09;;;;;;;9.80;7.17;;;14.10;99.90;;;;;;5038403;28;20206;-63
2022/08/29 04:19:35;;;;;;;10.00;7.57;;;14.10;99.90;;;;;;5057039;28;20464;-64
2022/08/29 04:22:02;;;;;;;13.53;7.57;;;14.10;99.90;;;;;;5051409;28;21165;-64
2022/08/29 04:24:30;;;;;;;19.57;6.63;;;14.10;99.90;;;;;;5041584;28;20516;-63
2022/08/29 04:26:56;;;;;;;14.03;6.50;;;14.10;99.90;;;;;;5051165;28;20448;-64
2022/08/29 04:29:21;;;;;;;7.87;6.23;;;14.00;99.90;;;;;;5052900;28;20409;-64
2022/08/29 04:31:47;;;;;;;9.80;7.03;;;14.00;99.90;;;;;;5049807;28;20478;-64
2022/08/29 04:34:12;;;;;;;13.13;6.70;;;14.00;99.90;;;;;;5046158;28;20583;-63
2022/08/29 04:36:41;;;;;;;12.40;6.70;;;14.00;99.90;;;;;;5049256;28;20266;-63
2022/08/29 04:39:08;;;;;;;8.50;6.57;;;14.00;99.90;;;;;;5059982;28;20267;-64
2022/08/29 04:41:34;;;;;;;16.23;6.47;;;13.90;99.90;;;;;;5057767;28;20429;-64
2022/08/29 04:44:01;;;;;;;11.20;6.70;;;13.90;99.90;;;;;;5051291;28;20466;-64
2022/08/29 04:46:27;;;;;;;9.83;6.13;;;13.80;99.90;;;;;;5055676;28;20452;-63
2022/08/29 04:48:53;;;;;;;11.60;6.90;;;13.80;99.90;;;;;;5041814;28;20469;-64
2022/08/29 04:51:20;;;;;;;9.43;7.17;;;13.80;99.90;;;;;;5039990;28;20838;-64
2022/08/29 04:53:46;;;;;;;8.60;7.47;;;13.80;99.90;;;;;;5044116;28;20171;-62
2022/08/29 04:56:13;;;;;;;8.30;7.13;;;13.80;99.90;;;;;;5057273;28;20945;-63
2022/08/29 04:58:40;;;;;;;26.70;7.40;;;13.80;99.90;;;;;;5051921;28;20494;-63
2022/08/29 05:01:07;;;;;;;24.97;6.77;;;13.80;99.90;;;;;;5049254;28;21238;-63
2022/08/29 05:03:33;;;;;;;12.50;6.60;;;13.80;99.90;;;;;;5031429;28;20505;-62
2022/08/29 05:06:01;;;;;;;7.63;6.90;;;13.80;99.90;;;;;;5039809;28;20946;-62
2022/08/29 05:08:29;;;;;;;9.50;7.63;;;13.80;99.90;;;;;;5037236;28;20453;-63
2022/08/29 05:10:55;;;;;;;35.80;8.17;;;13.80;99.90;;;;;;5047645;28;20492;-64
2022/08/29 05:13:21;;;;;;;11.97;7.90;;;13.80;99.90;;;;;;5040723;28;20433;-64
2022/08/29 05:15:48;;;;;;;16.73;7.37;;;13.80;99.90;;;;;;5042792;28;20437;-62
2022/08/29 05:18:16;;;;;;;20.90;7.23;;;13.80;99.90;;;;;;5037835;28;20449;-66
2022/08/29 05:20:44;;;;;;;24.87;8.13;;;13.80;99.90;;;;;;5044729;28;20461;-64
2022/08/29 05:23:11;;;;;;;22.40;7.40;;;13.80;99.90;;;;;;5040440;28;20456;-64
2022/08/29 05:25:37;;;;;;;20.53;9.87;;;13.80;99.90;;;;;;5038886;28;20961;-64
2022/08/29 05:28:03;;;;;;;15.30;9.20;;;13.80;99.90;;;;;;5045104;28;21086;-64
2022/08/29 05:30:30;;;;;;;18.10;10.57;;;13.80;99.90;;;;;;5043913;28;20425;-64
2022/08/29 05:32:55;;;;;;;23.27;10.10;;;13.80;99.90;;;;;;5040439;28;20638;-63
2022/08/29 05:35:21;;;;;;;36.43;10.63;;;13.90;99.90;;;;;;5035178;28;21064;-64
2022/08/29 05:37:47;;;;;;;23.13;11.17;;;13.90;99.90;;;;;;5040883;28;20203;-64
2022/08/29 05:40:12;;;;;;;39.70;13.30;;;13.90;99.90;;;;;;5056947;28;20198;-65
2022/08/29 05:42:39;;;;;;;35.90;16.00;;;14.00;99.90;;;;;;5055590;28;20183;-64
2022/08/29 05:45:05;;;;;;;33.60;13.20;;;14.00;99.90;;;;;;5030081;28;20184;-65
2022/08/29 05:47:31;;;;;;;36.37;14.90;;;14.00;99.90;;;;;;5041208;28;20587;-65
2022/08/29 05:49:57;;;;;;;62.53;14.57;;;14.00;99.90;;;;;;5049589;28;20490;-65
2022/08/29 05:52:24;;;;;;;62.20;16.43;;;14.10;99.90;;;;;;5054868;28;20941;-65
2022/08/29 05:54:49;;;;;;;139.77;22.03;;;14.00;99.90;;;;;;5062398;28;20520;-65
2022/08/29 05:57:19;;;;;;;54.97;20.17;;;14.00;99.90;;;;;;5053802;28;20568;-65
2022/08/29 05:59:45;;;;;;;40.80;17.00;;;14.00;99.90;;;;;;5042032;28;20199;-64
2022/08/29 06:02:12;;;;;;;31.40;16.30;;;14.00;99.90;;;;;;5048989;28;20426;-64
2022/08/29 06:04:38;;;;;;;37.13;17.60;;;14.00;99.90;;;;;;5048525;28;20434;-65
2022/08/29 06:07:05;;;;;;;42.27;17.43;;;14.10;99.90;;;;;;5046248;28;20453;-64
2022/08/29 06:09:32;;;;;;;34.93;17.07;;;14.10;99.90;;;;;;5048636;28;20479;-64
2022/08/29 06:11:57;;;;;;;40.03;17.70;;;14.10;99.90;;;;;;5039081;28;20433;-64
2022/08/29 06:14:24;;;;;;;52.60;21.87;;;14.20;99.90;;;;;;5045106;28;20536;-62
2022/08/29 06:16:50;;;;;;;53.53;19.97;;;14.20;99.90;;;;;;5051379;28;20221;-64
2022/08/29 06:19:16;;;;;;;53.20;21.27;;;14.30;99.90;;;;;;5052550;28;20425;-64
2022/08/29 06:21:42;;;;;;;62.63;21.83;;;14.30;99.90;;;;;;5043058;28;21007;-64
2022/08/29 06:24:08;;;;;;;57.47;21.27;;;14.40;99.90;;;;;;5039704;28;20214;-65
2022/08/29 06:26:34;;;;;;;51.47;21.87;;;14.40;99.90;;;;;;5045302;28;20313;-65
2022/08/29 06:29:06;;;;;;;57.33;21.10;;;14.50;99.90;;;;;;5044860;28;20426;-65
2022/08/29 06:31:32;;;;;;;41.93;20.00;;;14.50;99.90;;;;;;5034818;28;20430;-64
2022/08/29 06:34:01;;;;;;;68.20;19.83;;;14.60;99.90;;;;;;5041870;28;20430;-65
2022/08/29 06:36:28;;;;;;;37.10;18.40;;;14.60;99.90;;;;;;5040446;28;20503;-56
2022/08/29 06:38:59;;;;;;;35.70;17.40;;;14.70;99.90;;;;;;5043806;28;20433;-56
2022/08/29 06:41:25;;;;;;;34.87;17.60;;;14.70;99.90;;;;;;5034150;28;20481;-57
2022/08/29 06:43:51;;;;;;;36.00;17.43;;;14.70;99.90;;;;;;5039201;28;20457;-64
2022/08/29 06:46:27;;;;;;;38.10;17.43;;;14.80;99.90;;;;;;5047286;28;20512;-64
2022/08/29 06:48:54;;;;;;;33.33;17.20;;;14.80;99.90;;;;;;5041464;28;20429;-65
2022/08/29 06:51:20;;;;;;;40.90;18.80;;;14.90;99.90;;;;;;5044910;28;20464;-61
2022/08/29 06:53:46;;;;;;;38.00;17.80;;;15.00;99.90;;;;;;5045093;28;21328;-63
2022/08/29 06:56:13;;;;;;;46.23;19.23;;;15.00;99.90;;;;;;5033723;28;21050;-64
2022/08/29 06:58:38;;;;;;;45.50;19.80;;;15.10;99.90;;;;;;5035721;28;20183;-63
2022/08/29 07:01:13;;;;;;;51.17;21.57;;;15.20;99.90;;;;;;5024866;28;20524;-65
2022/08/29 07:03:40;;;;;;;52.33;21.33;;;15.20;99.90;;;;;;5036765;28;21582;-64
2022/08/29 07:06:06;;;;;;;48.57;19.70;;;15.30;99.90;;;;;;5037077;28;20443;-64
2022/08/29 07:08:32;;;;;;;37.37;18.43;;;15.30;99.90;;;;;;5040795;28;20448;-64
2022/08/29 07:10:58;;;;;;;38.37;17.97;;;15.40;99.90;;;;;;5036707;28;20522;-59
2022/08/29 07:13:24;;;;;;;29.77;14.70;;;15.50;99.90;;;;;;5034399;28;21248;-59
2022/08/29 07:15:50;;;;;;;22.53;13.33;;;15.50;99.90;;;;;;5035888;28;20453;-58
2022/08/29 07:18:16;;;;;;;20.40;11.97;;;15.60;99.90;;;;;;5041728;28;20204;-59
2022/08/29 07:20:42;;;;;;;12.93;9.80;;;15.70;99.90;;;;;;5040971;28;20493;-60
2022/08/29 07:23:08;;;;;;;14.60;9.80;;;15.70;99.90;;;;;;5033134;28;20516;-63
2022/08/29 07:25:34;;;;;;;13.70;9.00;;;15.70;99.90;;;;;;5029447;28;20861;-59
2022/08/29 07:28:00;;;;;;;14.43;9.00;;;15.80;99.90;;;;;;5033056;28;20458;-59
2022/08/29 07:30:26;;;;;;;16.70;9.90;;;15.90;99.90;;;;;;5042246;28;20434;-60
2022/08/29 07:32:52;;;;;;;13.47;9.63;;;16.00;99.90;;;;;;5038420;28;20180;-58
2022/08/29 07:35:18;;;;;;;10.83;8.80;;;16.20;99.90;;;;;;5037051;28;20188;-58
2022/08/29 07:37:44;;;;;;;10.83;8.13;;;16.30;99.90;;;;;;5039545;28;20289;-58
2022/08/29 07:40:11;;;;;;;11.57;9.20;;;16.50;99.90;;;;;;5027099;28;21035;-59
2022/08/29 07:42:38;;;;;;;17.43;10.57;;;16.60;99.90;;;;;;5041821;28;20175;-58
2022/08/29 07:45:09;;;;;;;16.73;10.33;;;16.80;99.90;;;;;;5040497;28;20454;-58
2022/08/29 07:47:34;;;;;;;15.00;10.27;;;16.90;99.90;;;;;;5041527;28;20526;-58
2022/08/29 07:50:08;;;;;;;13.17;10.00;;;17.10;99.90;;;;;;5041472;28;20456;-58
2022/08/29 07:52:35;;;;;;;13.87;11.07;;;17.20;99.90;;;;;;5040572;28;20261;-58
2022/08/29 07:55:01;;;;;;;17.10;11.23;;;17.30;99.90;;;;;;5040790;28;20441;-58
2022/08/29 07:57:27;;;;;;;15.90;11.50;;;17.50;99.90;;;;;;5039820;28;20468;-58
2022/08/29 07:59:52;;;;;;;18.17;10.40;;;17.60;99.90;;;;;;5039824;28;21033;-59
2022/08/29 08:02:18;;;;;;;17.87;11.50;;;17.70;99.90;;;;;;5041946;28;20829;-57
2022/08/29 08:04:44;;;;;;;15.67;9.97;;;17.80;99.90;;;;;;5036758;28;20187;-58
2022/08/29 08:07:10;;;;;;;12.60;10.87;;;17.90;99.90;;;;;;5035306;28;20283;-58
2022/08/29 08:09:37;;;;;;;17.50;10.90;;;18.10;99.90;;;;;;5036559;28;20554;-57
2022/08/29 08:12:04;;;;;;;15.07;10.83;;;18.20;99.90;;;;;;5039427;28;20433;-58
2022/08/29 08:14:31;;;;;;;14.70;11.90;;;18.30;99.90;;;;;;5032689;28;20956;-57
2022/08/29 08:16:56;;;;;;;15.17;11.43;;;18.50;99.90;;;;;;5038169;28;21050;-62
2022/08/29 08:19:22;;;;;;;13.97;10.57;;;18.60;99.90;;;;;;5039448;28;20465;-65
2022/08/29 08:21:48;;;;;;;12.70;10.93;;;18.70;99.90;;;;;;5038661;28;20171;-64
2022/08/29 08:24:13;;;;;;;14.83;10.70;;;18.90;99.90;;;;;;5037824;28;20183;-57
2022/08/29 08:26:39;;;;;;;21.30;11.37;;;19.00;99.90;;;;;;5032430;28;20191;-58
2022/08/29 08:29:05;;;;;;;14.03;10.83;;;19.10;99.90;;;;;;5038067;28;20275;-59
2022/08/29 08:31:30;;;;;;;14.83;10.70;;;19.20;99.90;;;;;;5035164;28;20293;-56
2022/08/29 08:33:56;;;;;;;16.07;10.43;;;19.40;99.90;;;;;;5032533;28;20652;-55
2022/08/29 08:36:27;;;;;;;11.17;8.97;;;19.50;99.90;;;;;;5038036;28;20179;-57
2022/08/29 08:38:54;;;;;;;13.10;9.83;;;19.60;99.90;;;;;;5039605;28;20663;-56
2022/08/29 08:41:28;;;;;;;14.50;10.00;;;19.70;99.90;;;;;;5041303;28;20469;-56
2022/08/29 08:44:25;;;;;;;15.83;9.80;;;19.90;99.90;;;;;;5033967;28;20444;-56
2022/08/29 08:46:56;;;;;;;14.80;9.33;;;20.00;99.90;;;;;;5039818;28;20452;-56
2022/08/29 08:49:51;;;;;;;12.67;9.63;;;20.10;99.90;;;;;;5036408;28;20496;-57
2022/08/29 08:52:31;;;;;;;13.53;7.73;;;20.20;99.90;;;;;;5033192;28;20507;-58
2022/08/29 08:55:03;;;;;;;12.03;8.67;;;20.30;99.90;;;;;;5033947;28;20444;-57
2022/08/29 08:57:39;;;;;;;12.87;9.30;;;20.50;99.90;;;;;;5037776;28;20457;-58
2022/08/29 09:00:07;;;;;;;11.90;7.23;;;20.60;99.90;;;;;;5036500;28;20569;-63
2022/08/29 09:03:01;;;;;;;15.83;8.23;;;20.70;99.90;;;;;;5038331;28;20440;-64
2022/08/29 09:05:35;;;;;;;13.73;8.50;;;20.90;99.90;;;;;;5042885;28;21063;-64
2022/08/29 09:08:18;;;;;;;13.33;8.27;;;21.00;99.90;;;;;;5032763;28;20460;-62
2022/08/29 09:11:22;;;;;;;13.37;8.70;;;21.10;99.90;;;;;;5040351;28;20441;-65
2022/08/29 09:13:56;;;;;;;15.23;8.80;;;21.30;99.90;;;;;;5036225;28;21070;-60
2022/08/29 09:16:45;;;;;;;13.97;8.70;;;21.40;99.90;;;;;;5046370;28;20448;-61
2022/08/29 09:19:13;;;;;;;11.03;7.87;;;21.60;99.90;;;;;;5037492;28;20462;-61
2022/08/29 09:21:47;;;;;;;12.70;7.50;;;21.80;99.90;;;;;;5044016;28;20497;-63
2022/08/29 09:24:38;;;;;;;10.17;7.63;;;21.90;99.90;;;;;;5042000;28;20442;-60
2022/08/29 09:27:05;;;;;;;10.90;7.37;;;22.00;99.90;;;;;;5045858;28;20580;-63
2022/08/29 09:29:31;;;;;;;9.20;7.37;;;22.10;99.90;;;;;;5042662;28;20785;-61
2022/08/29 09:32:23;;;;;;;13.30;7.93;;;22.10;99.90;;;;;;5041784;28;20512;-62
2022/08/29 09:34:49;;;;;;;9.93;8.70;;;22.20;99.90;;;;;;5036432;28;20426;-62
2022/08/29 09:37:21;;;;;;;15.33;8.40;;;22.30;99.90;;;;;;5044710;28;20453;-62
2022/08/29 09:40:08;;;;;;;9.73;7.27;;;22.40;99.90;;;;;;5041303;28;20548;-63
2022/08/29 09:42:38;;;;;;;12.30;7.93;;;22.50;99.90;;;;;;5042037;28;20460;-63
2022/08/29 09:45:14;;;;;;;10.87;7.97;;;22.60;99.90;;;;;;5040821;28;20473;-62
2022/08/29 09:47:40;;;;;;;10.50;7.50;;;22.70;99.90;;;;;;5040951;28;20969;-62
2022/08/29 09:50:18;;;;;;;10.13;7.10;;;22.80;99.90;;;;;;5043628;28;20430;-62
2022/08/29 09:52:55;;;;;;;8.70;7.13;;;22.90;99.40;;;;;;5042563;28;20179;-62
2022/08/29 09:55:21;;;;;;;9.57;7.90;;;23.00;99.60;;;;;;5042448;28;20438;-61
2022/08/29 09:57:58;;;;;;;9.70;7.50;;;23.00;97.70;;;;;;5042757;28;20440;-60
2022/08/29 10:00:28;;;;;;;7.90;7.10;;;23.00;96.50;;;;;;5040912;28;20457;-58
2022/08/29 10:02:59;;;;;;;13.63;7.60;;;23.00;98.30;;;;;;5042455;28;20495;-59
2022/08/29 10:05:33;;;;;;;11.37;7.10;;;23.10;98.30;;;;;;5036600;28;20505;-57
2022/08/29 10:08:01;;;;;;;8.70;7.10;;;23.10;97.10;;;;;;5032301;28;20491;-57
2022/08/29 10:10:31;;;;;;;9.13;7.60;;;23.20;96.50;;;;;;5037861;28;20469;-58
2022/08/29 10:13:14;;;;;;;9.73;7.67;;;23.30;96.40;;;;;;5038707;28;20418;-58
2022/08/29 10:15:56;;;;;;;12.00;7.30;;;23.40;95.30;;;;;;5038548;28;20486;-58
2022/08/29 10:18:26;;;;;;;8.30;7.00;;;23.50;92.20;;;;;;5035042;28;20472;-59
2022/08/29 10:21:29;;;;;;;8.07;7.27;;;23.60;91.60;;;;;;5034803;28;20453;-59
2022/08/29 10:24:07;;;;;;;12.57;7.30;;;23.70;92.20;;;;;;5034028;28;20941;-59
2022/08/29 10:26:53;;;;;;;7.97;6.00;;;23.80;92.20;;;;;;5038165;28;21223;-58
2022/08/29 10:29:37;;;;;;;10.27;6.33;;;24.00;94.00;;;;;;5039263;28;20474;-59
2022/08/29 10:32:31;;;;;;;7.57;6.00;;;24.10;85.60;;;;;;5041205;28;20785;-59
2022/08/29 10:35:03;;;;;;;9.00;6.70;;;24.20;90.50;;;;;;5035272;28;20440;-60
2022/08/29 10:37:41;;;;;;;6.60;5.90;;;24.40;79.10;;;;;;5039234;28;21205;-59
2022/08/29 10:40:26;;;;;;;9.13;6.80;;;24.50;77.90;;;;;;5040997;28;20462;-59
2022/08/29 10:43:12;;;;;;;6.77;5.57;;;24.60;77.00;;;;;;5036659;28;20425;-60
2022/08/29 10:45:56;;;;;;;8.77;6.00;;;24.70;74.10;;;;;;5040599;28;20935;-59
2022/08/29 10:48:35;;;;;;;6.93;5.60;;;24.70;74.50;;;;;;5035834;28;20975;-59
2022/08/29 10:51:15;;;;;;;9.23;5.70;;;24.70;72.40;;;;;;5039109;28;20465;-60
2022/08/29 10:53:45;;;;;;;10.50;6.20;;;24.70;71.10;;;;;;5037979;28;20429;-59
2022/08/29 10:56:34;;;;;;;5.87;5.27;;;24.80;73.60;;;;;;5042147;28;20425;-59
2022/08/29 10:59:17;;;;;;;6.00;5.37;;;24.80;68.50;;;;;;5044858;28;20460;-60
2022/08/29 11:01:59;;;;;;;9.80;5.87;;;24.60;65.80;;;;;;5039655;28;20462;-59
2022/08/29 11:04:28;;;;;;;9.03;5.93;;;24.30;66.30;;;;;;5039412;28;20437;-60
2022/08/29 11:07:04;;;;;;;9.77;6.57;;;24.00;69.30;;;;;;5040910;28;20911;-62
2022/08/29 11:09:39;;;;;;;7.43;5.63;;;23.80;70.90;;;;;;5041450;28;20483;-59
2022/08/29 11:12:24;;;;;;;7.67;5.23;;;23.60;74.80;;;;;;5040951;28;20430;-59
2022/08/29 11:14:59;;;;;;;6.20;5.67;;;23.70;72.20;;;;;;5038871;28;20505;-60
2022/08/29 11:17:32;;;;;;;5.80;5.03;;;23.80;69.70;;;;;;5043317;28;21189;-63
2022/08/29 11:20:14;;;;;;;6.77;5.67;;;23.80;68.60;;;;;;5045387;28;20469;-65
2022/08/29 11:22:43;;;;;;;7.63;6.27;;;23.80;67.20;;;;;;5041044;28;20934;-66
2022/08/29 11:25:15;;;;;;;9.90;6.70;;;23.90;69.90;;;;;;5040188;28;20455;-65
2022/08/29 11:27:56;;;;;;;8.03;5.60;;;24.30;74.60;;;;;;5041614;28;20461;-66
2022/08/29 11:30:48;;;;;;;7.07;6.37;;;24.60;68.00;;;;;;5042437;28;20437;-66
2022/08/29 11:33:35;;;;;;;6.30;5.10;;;25.00;70.00;;;;;;5039129;28;20496;-66
2022/08/29 11:36:26;;;;;;;8.20;5.83;;;25.20;65.90;;;;;;5038825;28;20473;-64
2022/08/29 11:39:11;;;;;;;9.53;5.23;;;25.50;66.00;;;;;;5036793;28;20943;-63
2022/08/29 11:41:50;;;;;;;6.40;5.73;;;25.60;62.20;;;;;;5037515;28;20470;-64
2022/08/29 11:44:39;;;;;;;6.73;5.77;;;25.40;59.80;;;;;;5038527;28;20476;-64
2022/08/29 11:47:37;;;;;;;8.43;5.90;;;25.10;61.00;;;;;;5037672;28;20479;-63
2022/08/29 11:50:41;;;;;;;9.33;6.20;;;24.80;62.10;;;;;;5036303;28;20501;-64
2022/08/29 11:53:19;;;;;;;14.23;6.20;;;24.70;64.00;;;;;;5034961;28;20437;-65
2022/08/29 11:56:14;;;;;;;13.73;6.30;;;24.70;63.60;;;;;;5051692;28;20429;-65
2022/08/29 11:58:47;;;;;;;7.77;6.50;;;24.50;62.70;;;;;;5036630;28;20468;-65
2022/08/29 12:01:31;;;;;;;6.63;5.60;;;24.30;63.80;;;;;;5041246;28;20469;-65
2022/08/29 12:03:58;;;;;;;8.67;6.57;;;24.10;65.10;;;;;;5038636;28;20429;-63
2022/08/29 12:06:50;;;;;;;8.07;5.77;;;24.30;67.60;;;;;;5040236;28;20430;-64
2022/08/29 12:09:39;;;;;;;6.10;5.43;;;24.60;66.30;;;;;;5032256;28;20426;-65
2022/08/29 12:12:09;;;;;;;10.83;4.90;;;25.10;65.10;;;;;;5037647;28;20808;-64
2022/08/29 12:14:46;;;;;;;12.03;6.17;;;25.50;61.40;;;;;;5035823;28;21174;-57
2022/08/29 12:17:23;;;;;;;9.40;5.17;;;25.50;59.40;;;;;;5038421;28;20460;-60
2022/08/29 12:20:12;;;;;;;6.57;5.80;;;25.30;59.10;;;;;;5040026;28;20799;-62
2022/08/29 12:22:50;;;;;;;6.80;5.13;;;25.10;59.70;;;;;;5050694;28;20433;-61
2022/08/29 12:25:43;;;;;;;6.80;5.77;;;25.20;61.40;;;;;;5044835;28;20444;-61
2022/08/29 12:28:22;;;;;;;7.07;6.10;;;25.50;61.00;;;;;;5043370;28;20532;-63
2022/08/29 12:30:57;;;;;;;7.03;5.33;;;25.90;59.60;;;;;;5045525;28;20440;-63
2022/08/29 12:33:45;;;;;;;6.40;5.50;;;26.30;59.40;;;;;;5049080;28;20493;-63
2022/08/29 12:36:24;;;;;;;8.80;5.60;;;26.70;58.20;;;;;;5041801;28;20782;-62
2022/08/29 12:39:26;;;;;;;6.30;5.50;;;27.10;57.20;;;;;;5048674;28;20419;-62
2022/08/29 12:42:15;;;;;;;7.03;5.10;;;27.50;56.70;;;;;;5039606;28;20430;-64
2022/08/29 12:45:04;;;;;;;7.70;5.10;;;27.90;54.50;;;;;;5044624;28;20440;-64
2022/08/29 12:47:39;;;;;;;6.80;5.20;;;27.70;52.10;;;;;;5042260;28;20477;-62
2022/08/29 12:50:15;;;;;;;5.40;4.90;;;27.30;53.00;;;;;;5039277;28;20474;-63
2022/08/29 12:52:41;;;;;;;6.93;5.13;;;26.80;52.70;;;;;;5039171;28;20749;-62
2022/08/29 12:55:25;;;;;;;8.63;5.60;;;26.40;53.70;;;;;;5043995;28;20182;-63
2022/08/29 12:57:52;;;;;;;7.23;5.20;;;26.00;54.40;;;;;;5042320;28;20197;-63
2022/08/29 13:00:25;;;;;;;15.87;7.30;;;25.60;56.00;;;;;;5042445;28;20969;-63